FWV17NP LSZH-BIKF
Flight info
| Callsign | FWV17NP |
|---|---|
| Flight time | N/A |
| Altitude | 40000 |
| Route | DEGES3W/28 DEGES Z1 ETAGO DCT HAREM/N0479F410 DCT LOHRE DCT MASEK/N0476F400 DCT BIGGE DCT OMIMA DCT ATNAK DCT GUNPA/M084F400 DCT ING DCT NASBU NASBU4K |
| Aircraft | A359/H-SDE2E3GHIJ3J4J5LM1ORWXY/LB1D1 |
Departure
| Time | 2026-04-26 13:00 |
|---|---|
| Airport | Zürich Airport (LSZH) |
Arrival
| Time | N/A |
|---|---|
| Airport | Keflavik International Airport (BIKF) |
| Time | Latitude | Longitude | Altitude | Speed | Heading |
|---|---|---|---|---|---|
| 2026-04-26 12:33 | 47.45328 | 8.55860 | 1409 ft | 0 kts | 6° |
| 2026-04-26 12:48 | 47.45319 | 8.55858 | 1403 ft | 4 kts | 5° |
| 2026-04-26 12:48 | 47.45292 | 8.55856 | 1409 ft | 4 kts | 356° |
| 2026-04-26 12:48 | 47.45267 | 8.55864 | 1413 ft | 4 kts | 328° |
| 2026-04-26 12:49 | 47.45255 | 8.55884 | 1413 ft | 1 kts | 276° |
| 2026-04-26 12:53 | 47.45260 | 8.55797 | 1412 ft | 12 kts | 275° |
| 2026-04-26 12:53 | 47.45269 | 8.55654 | 1403 ft | 15 kts | 277° |
| 2026-04-26 12:53 | 47.45300 | 8.55566 | 1411 ft | 9 kts | 323° |
| 2026-04-26 12:53 | 47.45393 | 8.55496 | 1411 ft | 18 kts | 334° |
| 2026-04-26 12:54 | 47.45487 | 8.55431 | 1410 ft | 12 kts | 335° |
| 2026-04-26 12:54 | 47.45574 | 8.55372 | 1410 ft | 15 kts | 335° |
| 2026-04-26 12:54 | 47.45630 | 8.55338 | 1411 ft | 0 kts | 354° |
| 2026-04-26 12:54 | 47.45631 | 8.55338 | 1411 ft | 0 kts | 354° |
| 2026-04-26 12:55 | 47.45644 | 8.55339 | 1410 ft | 5 kts | 9° |
| 2026-04-26 12:55 | 47.45669 | 8.55397 | 1410 ft | 9 kts | 81° |
| 2026-04-26 12:55 | 47.45660 | 8.55552 | 1412 ft | 17 kts | 96° |
| 2026-04-26 12:55 | 47.45646 | 8.55741 | 1412 ft | 20 kts | 96° |
| 2026-04-26 12:56 | 47.45632 | 8.55938 | 1412 ft | 17 kts | 96° |
| 2026-04-26 12:56 | 47.45627 | 8.55998 | 1403 ft | 0 kts | 96° |
| 2026-04-26 12:56 | 47.45625 | 8.56030 | 1405 ft | 9 kts | 95° |
| 2026-04-26 12:56 | 47.45618 | 8.56142 | 1412 ft | 13 kts | 96° |
| 2026-04-26 12:57 | 47.45608 | 8.56284 | 1409 ft | 15 kts | 96° |
| 2026-04-26 12:57 | 47.45594 | 8.56482 | 1405 ft | 21 kts | 96° |
| 2026-04-26 12:57 | 47.45579 | 8.56689 | 1409 ft | 15 kts | 96° |
| 2026-04-26 12:58 | 47.45564 | 8.56906 | 1403 ft | 5 kts | 96° |
| 2026-04-26 12:58 | 47.45563 | 8.56931 | 1407 ft | 0 kts | 96° |
| 2026-04-26 12:58 | 47.45562 | 8.56945 | 1406 ft | 7 kts | 96° |
| 2026-04-26 12:59 | 47.45579 | 8.57002 | 1414 ft | 6 kts | 41° |
| 2026-04-26 12:59 | 47.45650 | 8.57003 | 1413 ft | 11 kts | 316° |
| 2026-04-26 12:59 | 47.45677 | 8.56776 | 1411 ft | 59 kts | 276° |
| 2026-04-26 12:59 | 47.45764 | 8.55608 | 1411 ft | 166 kts | 277° |
| 2026-04-26 13:00 | 47.45914 | 8.53647 | 2073 ft | 205 kts | 278° |
| 2026-04-26 13:00 | 47.46060 | 8.51446 | 3166 ft | 226 kts | 280° |
| 2026-04-26 13:00 | 47.46221 | 8.49134 | 4033 ft | 228 kts | 275° |
| 2026-04-26 13:00 | 47.45988 | 8.46814 | 4638 ft | 234 kts | 248° |
| 2026-04-26 13:01 | 47.45197 | 8.44695 | 5418 ft | 235 kts | 237° |
| 2026-04-26 13:01 | 47.44335 | 8.42676 | 6375 ft | 230 kts | 237° |
| 2026-04-26 13:01 | 47.43506 | 8.40669 | 7137 ft | 230 kts | 238° |
| 2026-04-26 13:01 | 47.42601 | 8.38704 | 7779 ft | 233 kts | 226° |
| 2026-04-26 13:02 | 47.41194 | 8.37591 | 8431 ft | 235 kts | 189° |
| 2026-04-26 13:02 | 47.39600 | 8.37945 | 8843 ft | 236 kts | 153° |
| 2026-04-26 13:02 | 47.38453 | 8.39636 | 8984 ft | 239 kts | 117° |
| 2026-04-26 13:02 | 47.38191 | 8.42030 | 9001 ft | 244 kts | 86° |
| 2026-04-26 13:03 | 47.38267 | 8.44653 | 9168 ft | 270 kts | 89° |
| 2026-04-26 13:03 | 47.38290 | 8.47521 | 9196 ft | 285 kts | 90° |
| 2026-04-26 13:03 | 47.38322 | 8.50477 | 9206 ft | 289 kts | 89° |
| 2026-04-26 13:03 | 47.38386 | 8.53435 | 9209 ft | 289 kts | 88° |
| 2026-04-26 13:04 | 47.38482 | 8.56400 | 9213 ft | 289 kts | 87° |
| 2026-04-26 13:04 | 47.38604 | 8.59350 | 9211 ft | 289 kts | 86° |
| 2026-04-26 13:04 | 47.38740 | 8.62316 | 9266 ft | 289 kts | 86° |
| 2026-04-26 13:04 | 47.38879 | 8.65290 | 9650 ft | 292 kts | 86° |
| 2026-04-26 13:05 | 47.39020 | 8.68297 | 10378 ft | 296 kts | 86° |
| 2026-04-26 13:05 | 47.39161 | 8.71400 | 10762 ft | 311 kts | 86° |
| 2026-04-26 13:05 | 47.39311 | 8.74672 | 11055 ft | 327 kts | 86° |
| 2026-04-26 13:05 | 47.39464 | 8.78070 | 11510 ft | 337 kts | 86° |
| 2026-04-26 13:06 | 47.39618 | 8.81561 | 12032 ft | 343 kts | 86° |
| 2026-04-26 13:06 | 47.39773 | 8.85095 | 12673 ft | 346 kts | 86° |
| 2026-04-26 13:06 | 47.39929 | 8.88658 | 13244 ft | 351 kts | 86° |
| 2026-04-26 13:06 | 47.40086 | 8.92286 | 13778 ft | 356 kts | 86° |
| 2026-04-26 13:07 | 47.40242 | 8.95948 | 14370 ft | 358 kts | 86° |
| 2026-04-26 13:07 | 47.40398 | 8.99653 | 14841 ft | 364 kts | 86° |
| 2026-04-26 13:07 | 47.40555 | 9.03376 | 15317 ft | 369 kts | 86° |
| 2026-04-26 13:07 | 47.40730 | 9.07185 | 15946 ft | 369 kts | 84° |
| 2026-04-26 13:08 | 47.41180 | 9.10928 | 16427 ft | 374 kts | 74° |
| 2026-04-26 13:08 | 47.42109 | 9.14500 | 16962 ft | 374 kts | 62° |
| 2026-04-26 13:08 | 47.43539 | 9.17695 | 17566 ft | 374 kts | 48° |
| 2026-04-26 13:08 | 47.45316 | 9.20178 | 18068 ft | 374 kts | 34° |
| 2026-04-26 13:09 | 47.47633 | 9.22159 | 18691 ft | 373 kts | 22° |
| 2026-04-26 13:09 | 47.50066 | 9.23506 | 19124 ft | 375 kts | 15° |
| 2026-04-26 13:09 | 47.52598 | 9.24495 | 19573 ft | 378 kts | 11° |
| 2026-04-26 13:09 | 47.55182 | 9.25308 | 20007 ft | 381 kts | 9° |
| 2026-04-26 13:10 | 47.57786 | 9.26071 | 20447 ft | 384 kts | 9° |
| 2026-04-26 13:10 | 47.60421 | 9.26854 | 20900 ft | 387 kts | 9° |
| 2026-04-26 13:10 | 47.63067 | 9.27679 | 21348 ft | 390 kts | 10° |
| 2026-04-26 13:10 | 47.65714 | 9.28541 | 21796 ft | 394 kts | 10° |
| 2026-04-26 13:11 | 47.68404 | 9.29445 | 22246 ft | 396 kts | 11° |
| 2026-04-26 13:11 | 47.70187 | 9.30053 | 22543 ft | 398 kts | 11° |
| 2026-04-26 13:11 | 47.72901 | 9.30988 | 22981 ft | 402 kts | 11° |
| 2026-04-26 13:11 | 47.76481 | 9.32227 | 23556 ft | 406 kts | 10° |
| 2026-04-26 13:12 | 47.78347 | 9.32873 | 23832 ft | 408 kts | 10° |
| 2026-04-26 13:12 | 47.81118 | 9.33832 | 24194 ft | 411 kts | 10° |
| 2026-04-26 13:12 | 47.83875 | 9.34785 | 24569 ft | 413 kts | 10° |
| 2026-04-26 13:12 | 47.86672 | 9.35753 | 24920 ft | 417 kts | 10° |
| 2026-04-26 13:13 | 47.89503 | 9.36732 | 25290 ft | 420 kts | 9° |
| 2026-04-26 13:13 | 47.92357 | 9.37719 | 25687 ft | 423 kts | 10° |
| 2026-04-26 13:13 | 47.95265 | 9.38727 | 26099 ft | 425 kts | 10° |